Thursday, July 19, 2018, 1:34 AM EDT
Back to Local

KWWD, Wildwood, Cape May County Airport

Location: Villas, NJ, United States Lat: 39.017
Local Time: 1:34 AM EDT ( 5:34 GMT) Lon: -74.917
Time Zone: US/Eastern Elev: 22 ft

Show me the last for .
Show Decoded

2018-07-19 00:55 METAR KWWD 190455Z AUTO 00000KT 10SM BKN085 20/18 A3000 RMK AO2 SLP160 T02000183
                 402890194 =
2018-07-18 23:55 METAR KWWD 190355Z AUTO 00000KT 10SM BKN085 21/18 A2998 RMK AO2 SLP155 T02060178
                 =
2018-07-18 22:55 METAR KWWD 190255Z AUTO 00000KT 10SM CLR 21/18 A2997 RMK AO2 RAE0157 SLP151
                 P0000 60000 T02060183 51011 =
2018-07-18 21:55 METAR KWWD 190155Z AUTO 00000KT 7SM -RA CLR 22/18 A2997 RMK AO2 RAB47 SLP150
                 P0000 T02170183 =
2018-07-18 20:55 METAR KWWD 190055Z AUTO 00000KT 10SM BKN065 23/18 A2995 RMK AO2 SLP143 T02280183
                 =
2018-07-18 19:55 METAR KWWD 182355Z AUTO 15005KT 10SM SCT070 BKN090 24/18 A2994 RMK AO2 SLP140
                 T02440178 10289 20244 53007 =
2018-07-18 18:55 METAR KWWD 182255Z AUTO 12005KT 10SM FEW090 26/18 A2993 RMK AO2 SLP136 T02610178
                 =
2018-07-18 17:55 METAR KWWD 182155Z AUTO 13007KT 10SM CLR 27/18 A2992 RMK AO2 SLP132 T02670183 =
2018-07-18 16:55 METAR KWWD 182055Z AUTO 08007KT 10SM CLR 27/18 A2992 RMK AO2 SLP133 T02670183
                 51002 =
2018-07-18 15:55 METAR KWWD 181955Z AUTO 07010KT 10SM SCT070 28/18 A2992 RMK AO2 SLP132 T02780178
                 =
2018-07-18 14:55 METAR KWWD 181855Z AUTO 31008G15KT 10SM SCT060 28/18 A2992 RMK AO2 SLP132
                 T02830183 =
2018-07-18 13:55 METAR KWWD 181755Z AUTO 30008KT 9SM CLR 28/19 A2991 RMK AO2 SLP131 T02830194
                 10283 20222 56002 =
2018-07-18 12:55 METAR KWWD 181655Z AUTO 31007KT 10SM CLR 27/19 A2991 RMK AO2 SLP131 T02670189 =
2018-07-18 11:55 METAR KWWD 181555Z AUTO 30008KT 270V350 10SM CLR 26/18 A2991 RMK AO2 SLP131
                 T02610183 =
2018-07-18 11:48 METAR KWWD 181548Z AUTO 34008KT 10SM CLR 26/18 A2991 RMK AO2 =
2018-07-18 11:38 METAR KWWD 181538Z AUTO 31008KT 2SM HZ CLR 26/19 A2992 RMK AO2 =
2018-07-18 10:55 METAR KWWD 181455Z AUTO 32009KT 10SM FEW070 25/18 A2992 RMK AO2 SLP133 T02500183
                 51008 =
2018-07-18 10:39 METAR KWWD 181439Z AUTO 32007KT 10SM FEW002 25/19 A2992 RMK AO2 =
2018-07-18 09:55 METAR KWWD 181355Z AUTO 36006KT 10SM SCT075 25/18 A2992 RMK AO2 SLP132 T02500183
                 =
2018-07-18 08:55 METAR KWWD 181255Z AUTO 34004KT 10SM CLR 23/17 A2991 RMK AO2 SLP131 T02280172 =
2018-07-18 07:55 METAR KWWD 181155Z AUTO 35008KT 10SM CLR 22/18 A2989 RMK AO2 SLP124 70040
                 T02220178 10233 20211 53014 =
2018-07-18 06:55 METAR KWWD 181055Z AUTO 35007KT 10SM CLR 22/18 A2987 RMK AO2 SLP118 T02170183 =
2018-07-18 05:55 METAR KWWD 180955Z AUTO 35006KT 10SM CLR 22/20 A2986 RMK AO2 SLP114 T02170200 =
2018-07-18 04:55 METAR KWWD 180855Z AUTO 36006KT 10SM SCT008 23/22 A2985 RMK AO2 SLP110 T02280217
                 53011 =
2018-07-18 04:48 METAR KWWD 180848Z AUTO 35007KT 10SM SCT008 23/22 A2985 RMK AO2 =
2018-07-18 04:14 METAR KWWD 180814Z AUTO 35007KT 10SM BKN012 23/22 A2985 RMK AO2 =
2018-07-18 03:55 METAR KWWD 180755Z AUTO 34003KT 10SM FEW024 23/22 A2984 RMK AO2 SLP105 T02280222
                 =
2018-07-18 01:59 METAR KWWD 180559Z AUTO 35004KT 10SM SCT006 SCT010 BKN046 23/22 A2982 RMK AO2 =
2018-07-18 01:55 METAR KWWD 180555Z AUTO VRB04KT 10SM BKN006 BKN012 BKN046 23/22 A2982 RMK AO2
                 CIG 004V009 SLP099 60001 T02280222 10239 20228 58001 =

Support USWX by starting your Amazon purchase here.